Terminal Aerodrome Forecast
Issued by NWS

Home | Current Version | Previous Version | Text Only | Print | Product List | Glossary On
Versions: 1 2 3 4 5 6 7 8 9 10 11 12 13 14 15
000
FTUS42 KJAX 260536
TAFVQQ
TAF
KVQQ 260536Z 2606/2706 00000KT 4SM BR SCT030 SCT120 BKN200
     FM261200 VRB03KT P6SM VCSH SCT035 BKN060 BKN200
     FM261700 35005KT P6SM VCTS SCT030CB BKN040 OVC200 PROB30
      2617/2622 VRB15G25KT 3SM +TSRA BR SCT010 BKN020CB OVC040
     FM270200 08003KT P6SM VCSH SCT040 BKN100 OVC250=

USA.gov is the U.S. government's official web portal to all federal, state and local government web resources and services.